createdAt,value
2023-05-21T00:00:38.829Z,95281.44
2023-05-21T00:01:40.812Z,95278.69
2023-05-21T00:02:43.843Z,95278.69
2023-05-21T00:03:46.249Z,95277.13
2023-05-21T00:04:49.338Z,95275.63
2023-05-21T00:05:51.350Z,95268.56
2023-05-21T00:06:54.262Z,95267.03
2023-05-21T00:07:56.172Z,95270.56
2023-05-21T00:09:00.720Z,95275.63
2023-05-21T00:10:02.670Z,95275.63
2023-05-21T00:11:05.754Z,95274.09
2023-05-21T00:12:08.584Z,95278.41
2023-05-21T00:13:11.524Z,95274.09
2023-05-21T00:14:13.486Z,95266.06
2023-05-21T00:15:16.482Z,95271.59
2023-05-21T00:16:18.522Z,95269.13
2023-05-21T00:17:21.467Z,95263.56
2023-05-21T00:18:25.351Z,95258.78
2023-05-21T00:19:28.502Z,95265.13
2023-05-21T00:20:32.353Z,95265.13
2023-05-21T00:21:35.427Z,95262.34
2023-05-21T00:22:37.418Z,95258.78
2023-05-21T00:23:42.735Z,95269.13
2023-05-21T00:24:47.009Z,95267.59
2023-05-21T00:25:50.453Z,95270.09
2023-05-21T00:26:53.353Z,95261.78
2023-05-21T00:27:55.668Z,95266.28
2023-05-21T00:28:58.700Z,95264.75
2023-05-21T00:30:00.834Z,95261.22
2023-05-21T00:31:03.965Z,95254.94
2023-05-21T00:32:06.762Z,95258.47
2023-05-21T00:33:10.432Z,95253.13
2023-05-21T00:34:13.354Z,95259.16
2023-05-21T00:35:16.452Z,95261.94
2023-05-21T00:36:18.561Z,95249.03
2023-05-21T00:37:21.806Z,95254.31
2023-05-21T00:38:24.059Z,95251.53
2023-05-21T00:39:26.966Z,95252.78
2023-05-21T00:40:31.054Z,95252.03
2023-05-21T00:41:35.370Z,95252.03
2023-05-21T00:42:40.623Z,95249.72
2023-05-21T00:43:44.659Z,95255.25
2023-05-21T00:44:46.683Z,95253.00
2023-05-21T00:45:49.664Z,95253.75
2023-05-21T00:46:53.704Z,95253.00
2023-05-21T00:47:57.007Z,95252.22
2023-05-21T00:48:59.843Z,95259.28
2023-05-21T00:50:03.913Z,95251.47
2023-05-21T00:51:06.590Z,95251.94
2023-05-21T00:52:09.506Z,95247.66
2023-05-21T00:53:11.652Z,95250.91
2023-05-21T00:54:14.889Z,95249.66
2023-05-21T00:55:16.932Z,95251.41
2023-05-21T00:56:23.903Z,95242.31
2023-05-21T00:57:27.264Z,95236.78
2023-05-21T00:58:31.114Z,95241.56
2023-05-21T00:59:33.335Z,95246.34
2023-05-21T01:00:37.427Z,95244.03
2023-05-21T01:01:39.399Z,95249.59
2023-05-21T01:02:44.259Z,95245.31
2023-05-21T01:03:48.739Z,95251.31
2023-05-21T01:04:52.855Z,95247.78
2023-05-21T01:05:59.869Z,95246.28
2023-05-21T01:07:02.983Z,95251.53
2023-05-21T01:08:05.686Z,95243.22
2023-05-21T01:09:09.260Z,95245.22
2023-05-21T01:10:11.859Z,95243.75
2023-05-21T01:11:15.703Z,95255.53
2023-05-21T01:12:20.891Z,95248.97
2023-05-21T01:13:24.540Z,95243.91
2023-05-21T01:14:26.854Z,95250.97
2023-05-21T01:15:30.386Z,95243.91
2023-05-21T01:16:33.647Z,95249.44
2023-05-21T01:17:36.799Z,95243.91
2023-05-21T01:18:38.955Z,95242.38
2023-05-21T01:19:44.435Z,95240.88
2023-05-21T01:20:48.219Z,95244.41
2023-05-21T01:21:53.875Z,95240.88
2023-05-21T01:22:58.282Z,95237.81
2023-05-21T01:24:02.181Z,95242.56
2023-05-21T01:25:04.553Z,95236.28
2023-05-21T01:26:07.513Z,95239.06
2023-05-21T01:27:10.498Z,95243.38
2023-05-21T01:28:13.556Z,95240.59
2023-05-21T01:29:15.596Z,95241.06
2023-05-21T01:30:19.822Z,95239.06
2023-05-21T01:31:26.546Z,95236.28
2023-05-21T01:32:35.960Z,95238.78
2023-05-21T01:33:45.434Z,95238.03
2023-05-21T01:34:56.916Z,95230.47
2023-05-21T01:36:05.700Z,95236.00
2023-05-21T01:37:15.579Z,95231.72
2023-05-21T01:38:24.999Z,95233.75
2023-05-21T01:39:34.278Z,95230.97
2023-05-21T01:40:40.706Z,95223.91
2023-05-21T01:41:45.992Z,95224.66
2023-05-21T01:42:48.724Z,95235.72
2023-05-21T01:43:55.359Z,95231.44
2023-05-21T01:44:59.619Z,95230.69
2023-05-21T01:46:03.660Z,95225.63
2023-05-21T01:47:07.863Z,95225.63
2023-05-21T01:48:13.187Z,95230.41
2023-05-21T01:49:17.211Z,95223.34
2023-05-21T01:50:20.502Z,95221.81
2023-05-21T01:51:24.089Z,95228.88
2023-05-21T01:52:26.969Z,95227.34
2023-05-21T01:53:30.286Z,95225.06
2023-05-21T01:54:33.237Z,95223.56
2023-05-21T01:55:39.531Z,95222.81
2023-05-21T01:56:43.056Z,95226.78
2023-05-21T01:57:44.962Z,95232.31
2023-05-21T01:58:50.094Z,95226.00
2023-05-21T01:59:53.445Z,95223.25
2023-05-21T02:00:57.028Z,95224.22
2023-05-21T02:01:59.067Z,95214.38
2023-05-21T02:03:02.316Z,95223.94
2023-05-21T02:04:04.362Z,95228.72
2023-05-21T02:05:09.229Z,95221.16
2023-05-21T02:06:11.350Z,95225.84
2023-05-21T02:07:15.358Z,95229.88
2023-05-21T02:08:19.747Z,95222.03
2023-05-21T02:09:23.985Z,95226.31
2023-05-21T02:10:25.938Z,95224.34
2023-05-21T02:11:29.184Z,95228.34
2023-05-21T02:12:31.250Z,95227.56
2023-05-21T02:13:34.211Z,95226.06
2023-05-21T02:14:36.466Z,95221.28
2023-05-21T02:15:40.334Z,95219.75
2023-05-21T02:16:42.516Z,95228.56
2023-05-21T02:17:46.152Z,95227.78
2023-05-21T02:18:51.470Z,95218.44
2023-05-21T02:19:54.442Z,95228.06
2023-05-21T02:20:56.326Z,95221.75
2023-05-21T02:21:59.200Z,95219.75
2023-05-21T02:23:01.131Z,95220.72
2023-05-21T02:24:04.145Z,95220.72
2023-05-21T02:25:09.182Z,95223.03
2023-05-21T02:26:12.231Z,95223.78
2023-05-21T02:27:14.202Z,95230.28
2023-05-21T02:28:17.082Z,95231.50
2023-05-21T02:29:19.011Z,95234.25
2023-05-21T02:30:22.296Z,95227.97
2023-05-21T02:31:36.917Z,95225.22
2023-05-21T02:32:43.311Z,95225.69
2023-05-21T02:33:46.342Z,95224.19
2023-05-21T02:34:48.662Z,95222.63
2023-05-21T02:35:51.761Z,95229.41
2023-05-21T02:36:54.615Z,95214.84
2023-05-21T02:37:59.426Z,95219.59
2023-05-21T02:39:01.767Z,95218.84
2023-05-21T02:40:07.309Z,95218.06
2023-05-21T02:41:11.278Z,95222.84
2023-05-21T02:42:14.200Z,95217.78
2023-05-21T02:43:16.469Z,95218.53
2023-05-21T02:44:20.906Z,95221.31
2023-05-21T02:45:22.867Z,95217.78
2023-05-21T02:46:25.859Z,95226.09
2023-05-21T02:47:28.509Z,95220.28
2023-05-21T02:48:31.440Z,95224.56
2023-05-21T02:49:33.456Z,95212.47
2023-05-21T02:50:36.381Z,95219.53
2023-05-21T02:51:38.235Z,95218.75
2023-05-21T02:52:41.573Z,95221.53
2023-05-21T02:53:43.492Z,95222.28
2023-05-21T02:54:46.511Z,95218.75
2023-05-21T02:55:48.716Z,95218.75
2023-05-21T02:56:53.013Z,95218.00
2023-05-21T02:57:54.993Z,95211.22
2023-05-21T02:58:57.979Z,95217.50
2023-05-21T02:59:59.867Z,95213.22
2023-05-21T03:01:03.108Z,95213.50
2023-05-21T03:02:05.510Z,95211.22
2023-05-21T03:03:08.713Z,95216.75
2023-05-21T03:04:13.659Z,95208.47
2023-05-21T03:05:16.701Z,95218.25
2023-05-21T03:06:19.899Z,95215.50
2023-05-21T03:07:24.348Z,95217.50
2023-05-21T03:08:26.636Z,95213.22
2023-05-21T03:09:29.558Z,95214.47
2023-05-21T03:10:32.718Z,95208.19
2023-05-21T03:11:35.724Z,95211.41
2023-05-21T03:12:39.293Z,95209.91
2023-05-21T03:13:42.755Z,95209.13
2023-05-21T03:14:46.363Z,95217.44
2023-05-21T03:15:49.938Z,95211.16
2023-05-21T03:16:51.942Z,95216.69
2023-05-21T03:17:55.325Z,95209.91
2023-05-21T03:18:58.615Z,95209.13
2023-05-21T03:20:01.606Z,95208.38
2023-05-21T03:21:04.418Z,95208.38
2023-05-21T03:22:07.826Z,95209.63
2023-05-21T03:23:16.197Z,95208.84
2023-05-21T03:24:19.969Z,95203.31
2023-05-21T03:25:25.153Z,95206.09
2023-05-21T03:26:29.704Z,95206.56
2023-05-21T03:27:32.705Z,95210.09
2023-05-21T03:28:41.683Z,95206.09
2023-05-21T03:29:43.814Z,95205.34
2023-05-21T03:30:47.307Z,95206.56
2023-05-21T03:32:08.315Z,95213.34
2023-05-21T03:33:11.940Z,95208.56
2023-05-21T03:34:14.345Z,95209.31
2023-05-21T03:35:17.270Z,95204.56
2023-05-21T03:36:20.893Z,95203.03
2023-05-21T03:37:22.826Z,95203.03
2023-05-21T03:38:26.251Z,95202.28
2023-05-21T03:39:29.511Z,95209.03
2023-05-21T03:40:33.209Z,95197.97
2023-05-21T03:41:35.650Z,95203.50
2023-05-21T03:42:45.401Z,95201.53
2023-05-21T03:43:53.601Z,95210.28
2023-05-21T03:44:59.114Z,95208.75
2023-05-21T03:46:24.290Z,95206.50
2023-05-21T03:47:36.180Z,95203.44
2023-05-21T03:48:40.503Z,95197.16
2023-05-21T03:49:45.700Z,95205.72
2023-05-21T03:50:47.661Z,95202.69
2023-05-21T03:51:50.897Z,95208.97
2023-05-21T03:52:55.037Z,95205.91
2023-05-21T03:53:58.775Z,95202.41
2023-05-21T03:55:01.461Z,95209.16
2023-05-21T03:56:05.471Z,95215.47
2023-05-21T03:57:07.865Z,95203.63
2023-05-21T03:58:11.804Z,95197.34
2023-05-21T03:59:15.408Z,95207.94
2023-05-21T04:00:20.255Z,95199.63
2023-05-21T04:01:22.890Z,95198.09
2023-05-21T04:02:28.017Z,95203.63
2023-05-21T04:03:30.294Z,95207.94
2023-05-21T04:04:34.647Z,95211.44
2023-05-21T04:05:36.977Z,95208.69
2023-05-21T04:06:42.313Z,95206.69
2023-05-21T04:07:47.268Z,95205.91
2023-05-21T04:08:49.226Z,95212.19
2023-05-21T04:09:52.198Z,95214.22
2023-05-21T04:10:54.269Z,95209.44
2023-05-21T04:11:57.776Z,95209.94
2023-05-21T04:12:59.658Z,95210.69
2023-05-21T04:14:02.878Z,95208.41
2023-05-21T04:15:07.678Z,95204.88
2023-05-21T04:16:14.687Z,95211.63
2023-05-21T04:17:17.115Z,95212.88
2023-05-21T04:18:23.018Z,95207.81
2023-05-21T04:19:25.038Z,95217.38
2023-05-21T04:20:27.986Z,95204.78
2023-05-21T04:21:32.259Z,95205.56
2023-05-21T04:22:35.312Z,95205.28
2023-05-21T04:23:38.620Z,95205.28
2023-05-21T04:24:48.817Z,95215.06
2023-05-21T04:25:59.276Z,95214.31
2023-05-21T04:27:01.235Z,95216.31
2023-05-21T04:28:06.355Z,95219.09
2023-05-21T04:29:08.697Z,95214.31
2023-05-21T04:30:13.789Z,95224.91
2023-05-21T04:31:16.231Z,95220.88
2023-05-21T04:32:19.304Z,95213.84
2023-05-21T04:33:21.195Z,95226.88
2023-05-21T04:34:24.791Z,95224.22
2023-05-21T04:35:27.781Z,95226.88
2023-05-21T04:36:30.177Z,95219.09
2023-05-21T04:37:35.072Z,95211.28
2023-05-21T04:38:38.266Z,95217.56
2023-05-21T04:39:42.456Z,95216.03
2023-05-21T04:40:44.354Z,95216.03
2023-05-21T04:41:48.435Z,95216.03
2023-05-21T04:42:50.857Z,95218.81
2023-05-21T04:43:56.091Z,95223.56
2023-05-21T04:45:02.549Z,95215.28
2023-05-21T04:46:09.785Z,95223.56
2023-05-21T04:47:12.397Z,95224.34
2023-05-21T04:48:15.864Z,95231.09
2023-05-21T04:49:17.842Z,95225.56
2023-05-21T04:50:21.403Z,95224.81
2023-05-21T04:51:24.902Z,95233.84
2023-05-21T04:52:28.025Z,95228.06
2023-05-21T04:53:29.917Z,95228.06
2023-05-21T04:54:32.824Z,95236.59
2023-05-21T04:55:39.568Z,95231.88
2023-05-21T04:56:42.506Z,95238.16
2023-05-21T04:57:44.441Z,95232.16
2023-05-21T04:58:47.948Z,95239.66
2023-05-21T04:59:50.381Z,95234.13
2023-05-21T05:00:53.855Z,95236.91
2023-05-21T05:01:57.208Z,95229.38
2023-05-21T05:03:00.311Z,95225.38
2023-05-21T05:04:02.353Z,95230.91
2023-05-21T05:05:06.558Z,95228.91
2023-05-21T05:06:08.553Z,95226.13
2023-05-21T05:07:12.120Z,95227.66
2023-05-21T05:08:16.080Z,95224.41
2023-05-21T05:09:21.541Z,95221.94
2023-05-21T05:10:23.427Z,95226.22
2023-05-21T05:11:27.077Z,95222.22
2023-05-21T05:12:29.340Z,95231.25
2023-05-21T05:13:32.284Z,95227.28
2023-05-21T05:14:34.236Z,95229.28
2023-05-21T05:15:37.381Z,95231.25
2023-05-21T05:16:39.640Z,95230.50
2023-05-21T05:17:45.075Z,95229.75
2023-05-21T05:18:48.408Z,95230.50
2023-05-21T05:19:51.517Z,95233.75
2023-05-21T05:20:53.460Z,95229.47
2023-05-21T05:21:56.645Z,95229.94
2023-05-21T05:22:58.803Z,95232.22
2023-05-21T05:24:01.870Z,95231.47
2023-05-21T05:25:07.629Z,95233.75
2023-05-21T05:26:11.803Z,95233.75
2023-05-21T05:27:13.728Z,95236.78
2023-05-21T05:28:16.690Z,95239.09
2023-05-21T05:29:18.650Z,95231.84
2023-05-21T05:30:22.278Z,95235.34
2023-05-21T05:31:24.421Z,95236.41
2023-05-21T05:32:28.814Z,95237.94
2023-05-21T05:33:32.500Z,95231.16
2023-05-21T05:34:35.424Z,95232.69
2023-05-21T05:35:37.657Z,95234.72
2023-05-21T05:36:40.846Z,95236.63
2023-05-21T05:37:43.306Z,95237.38
2023-05-21T05:38:46.189Z,95232.31
2023-05-21T05:39:48.382Z,95232.13
2023-05-21T05:40:52.253Z,95235.66
2023-05-21T05:41:54.412Z,95233.16
2023-05-21T05:42:57.688Z,95231.16
2023-05-21T05:43:59.617Z,95231.44
2023-05-21T05:45:06.715Z,95225.91
2023-05-21T05:46:09.495Z,95230.22
2023-05-21T05:47:12.715Z,95240.03
2023-05-21T05:48:15.260Z,95228.50
2023-05-21T05:49:19.545Z,95231.25
2023-05-21T05:50:21.794Z,95229.34
2023-05-21T05:51:24.676Z,95224.41
2023-05-21T05:52:26.658Z,95233.28
2023-05-21T05:53:30.108Z,95235.06
2023-05-21T05:54:32.128Z,95235.34
2023-05-21T05:55:35.456Z,95236.38
2023-05-21T05:56:38.019Z,95234.66
2023-05-21T05:57:42.661Z,95236.38
2023-05-21T05:58:49.020Z,95235.06
2023-05-21T05:59:53.517Z,95237.38
2023-05-21T06:00:55.533Z,95240.88
2023-05-21T06:01:58.550Z,95228.56
2023-05-21T06:03:01.989Z,95241.16
2023-05-21T06:04:05.253Z,95240.59
2023-05-21T06:05:10.026Z,95241.44
2023-05-21T06:06:13.263Z,95234.09
2023-05-21T06:07:15.311Z,95242.59
2023-05-21T06:08:18.229Z,95246.13
2023-05-21T06:09:22.124Z,95244.78
2023-05-21T06:10:25.276Z,95243.84
2023-05-21T06:11:27.777Z,95239.06
2023-05-21T06:12:30.794Z,95234.78
2023-05-21T06:13:32.896Z,95238.13
2023-05-21T06:14:36.026Z,95232.88
2023-05-21T06:15:39.382Z,95242.69
2023-05-21T06:16:42.409Z,95240.19
2023-05-21T06:17:44.494Z,95234.09
2023-05-21T06:18:51.714Z,95238.69
2023-05-21T06:19:53.927Z,95236.69
2023-05-21T06:20:58.758Z,95236.69
2023-05-21T06:22:01.811Z,95234.94
2023-05-21T06:23:04.091Z,95240.97
2023-05-21T06:24:07.720Z,95235.94
2023-05-21T06:25:10.932Z,95242.09
2023-05-21T06:26:14.553Z,95233.53
2023-05-21T06:27:16.521Z,95230.50
2023-05-21T06:28:20.068Z,95240.13
2023-05-21T06:29:23.637Z,95235.63
2023-05-21T06:30:26.808Z,95237.38
2023-05-21T06:31:29.075Z,95243.94
2023-05-21T06:32:32.184Z,95246.69
2023-05-21T06:33:34.460Z,95243.44
2023-05-21T06:34:37.622Z,95241.34
2023-05-21T06:35:40.235Z,95243.44
2023-05-21T06:36:46.794Z,95242.50
2023-05-21T06:37:48.829Z,95238.00
2023-05-21T06:38:52.222Z,95240.00
2023-05-21T06:39:54.319Z,95235.53
2023-05-21T06:40:58.400Z,95242.56
2023-05-21T06:42:22.515Z,95237.72
2023-05-21T06:43:38.123Z,95237.50
2023-05-21T06:45:16.207Z,95246.88
2023-05-21T06:46:19.840Z,95249.13
2023-05-21T06:47:22.917Z,95252.19
2023-05-21T06:48:24.944Z,95254.47
2023-05-21T06:49:27.941Z,95258.69
2023-05-21T06:50:29.957Z,95258.47
2023-05-21T06:51:32.865Z,95250.47
2023-05-21T06:52:36.281Z,95248.72
2023-05-21T06:53:39.829Z,95247.00
2023-05-21T06:54:42.732Z,95255.59
2023-05-21T06:55:44.921Z,95255.59
2023-05-21T06:56:58.167Z,95253.09
2023-05-21T06:58:00.066Z,95246.06
2023-05-21T06:59:03.106Z,95245.56
2023-05-21T07:00:06.172Z,95245.09
2023-05-21T07:01:11.733Z,95242.91
2023-05-21T07:02:13.813Z,95250.47
2023-05-21T07:03:17.184Z,95250.25
2023-05-21T07:04:19.341Z,95253.69
2023-05-21T07:05:22.282Z,95251.22
2023-05-21T07:06:24.388Z,95254.44
2023-05-21T07:07:28.577Z,95263.31
2023-05-21T07:08:32.700Z,95253.78
2023-05-21T07:09:35.943Z,95251.78
2023-05-21T07:10:38.025Z,95257.84
2023-05-21T07:11:41.806Z,95255.59
2023-05-21T07:12:44.788Z,95258.16
2023-05-21T07:13:47.839Z,95245.34
2023-05-21T07:14:50.325Z,95253.47
2023-05-21T07:15:53.376Z,95247.44
2023-05-21T07:16:55.605Z,95250.97
2023-05-21T07:17:58.684Z,95255.53
2023-05-21T07:19:01.231Z,95246.75
2023-05-21T07:20:06.659Z,95257.81
2023-05-21T07:21:08.779Z,95256.09
2023-05-21T07:22:13.315Z,95251.81
2023-05-21T07:23:15.407Z,95247.50
2023-05-21T07:24:19.825Z,95258.59
2023-05-21T07:25:21.820Z,95252.06
2023-05-21T07:26:26.326Z,95255.13
2023-05-21T07:27:28.293Z,95253.38
2023-05-21T07:28:31.865Z,95253.94
2023-05-21T07:29:35.170Z,95247.47
2023-05-21T07:30:37.175Z,95256.03
2023-05-21T07:31:44.898Z,95258.03
2023-05-21T07:32:46.859Z,95254.56
2023-05-21T07:33:49.853Z,95253.06
2023-05-21T07:34:54.423Z,95250.84
2023-05-21T07:35:59.604Z,95252.34
2023-05-21T07:37:02.006Z,95246.16
2023-05-21T07:38:04.931Z,95252.50
2023-05-21T07:39:07.199Z,95244.47
2023-05-21T07:40:13.097Z,95248.28
2023-05-21T07:41:17.093Z,95256.09
2023-05-21T07:42:21.787Z,95246.34
2023-05-21T07:43:24.279Z,95247.84
2023-05-21T07:44:27.165Z,95251.66
2023-05-21T07:45:29.131Z,95251.66
2023-05-21T07:46:32.691Z,95244.41
2023-05-21T07:47:34.841Z,95245.91
2023-05-21T07:48:37.921Z,95249.72
2023-05-21T07:49:40.521Z,95244.72
2023-05-21T07:50:43.745Z,95246.22
2023-05-21T07:51:46.254Z,95246.78
2023-05-21T07:52:49.334Z,95244.28
2023-05-21T07:53:53.192Z,95236.56
2023-05-21T07:55:03.189Z,95251.34
2023-05-21T07:56:09.833Z,95237.34
2023-05-21T07:57:12.954Z,95235.41
2023-05-21T07:58:26.956Z,95243.00
2023-05-21T07:59:30.030Z,95241.06
2023-05-21T08:00:43.909Z,95238.84
2023-05-21T08:01:47.852Z,95235.09
2023-05-21T08:02:49.860Z,95238.13
2023-05-21T08:03:53.542Z,95241.72
2023-05-21T08:04:55.789Z,95235.72
2023-05-21T08:05:58.693Z,95239.28
2023-05-21T08:07:00.619Z,95247.19
2023-05-21T08:08:03.438Z,95242.66
2023-05-21T08:09:06.845Z,95243.91
2023-05-21T08:10:09.334Z,95246.47
2023-05-21T08:11:13.642Z,95246.56
2023-05-21T08:12:16.148Z,95246.31
2023-05-21T08:13:20.207Z,95250.09
2023-05-21T08:14:23.347Z,95248.31
2023-05-21T08:15:26.612Z,95256.44
2023-05-21T08:16:29.356Z,95260.78
2023-05-21T08:17:32.805Z,95253.25
2023-05-21T08:18:35.158Z,95251.03
2023-05-21T08:19:38.271Z,95252.31
2023-05-21T08:20:41.334Z,95258.34
2023-05-21T08:21:45.304Z,95259.81
2023-05-21T08:22:48.353Z,95254.78
2023-05-21T08:23:53.974Z,95248.25
2023-05-21T08:24:56.421Z,95247.75
2023-05-21T08:25:59.362Z,95258.88
2023-05-21T08:27:02.783Z,95253.63
2023-05-21T08:28:07.960Z,95260.47
2023-05-21T08:29:10.706Z,95259.50
2023-05-21T08:30:14.592Z,95259.78
2023-05-21T08:31:18.412Z,95271.41
2023-05-21T08:32:21.444Z,95258.56
2023-05-21T08:33:23.476Z,95265.63
2023-05-21T08:34:26.647Z,95262.34
2023-05-21T08:35:46.356Z,95271.13
2023-05-21T08:36:56.207Z,95266.81
2023-05-21T08:38:30.101Z,95264.97
2023-05-21T08:39:32.393Z,95266.72
2023-05-21T08:40:35.710Z,95267.66
2023-05-21T08:41:39.704Z,95270.44
2023-05-21T08:42:46.924Z,95261.13
2023-05-21T08:43:57.340Z,95269.72
2023-05-21T08:45:02.236Z,95263.63
2023-05-21T08:46:05.295Z,95270.00
2023-05-21T08:47:17.487Z,95264.44
2023-05-21T08:48:22.371Z,95265.72
2023-05-21T08:49:28.228Z,95265.66
2023-05-21T08:50:32.843Z,95264.91
2023-05-21T08:51:41.742Z,95265.63
2023-05-21T08:52:44.754Z,95265.91
2023-05-21T08:53:46.963Z,95270.19
2023-05-21T08:54:53.359Z,95265.84
2023-05-21T08:55:57.389Z,95273.22
2023-05-21T08:57:06.397Z,95277.06
2023-05-21T08:58:10.828Z,95277.06
2023-05-21T08:59:14.917Z,95277.31
2023-05-21T09:00:20.701Z,95280.63
2023-05-21T09:01:24.875Z,95271.56
2023-05-21T09:02:40.764Z,95280.41
2023-05-21T09:03:43.877Z,95285.72
2023-05-21T09:04:49.120Z,95286.91
2023-05-21T09:05:51.931Z,95282.16
2023-05-21T09:06:57.887Z,95280.91
2023-05-21T09:08:21.120Z,95276.91
2023-05-21T09:09:34.257Z,95289.22
2023-05-21T09:10:39.742Z,95276.56
2023-05-21T09:11:42.413Z,95293.53
2023-05-21T09:12:45.768Z,95279.84
2023-05-21T09:13:50.798Z,95280.09
2023-05-21T09:15:01.387Z,95279.13
2023-05-21T09:16:09.947Z,95278.88
2023-05-21T09:17:14.993Z,95282.66
2023-05-21T09:18:18.845Z,95288.50
2023-05-21T09:19:39.042Z,95288.97
2023-05-21T09:20:41.476Z,95290.75
2023-05-21T09:21:44.892Z,95290.69
2023-05-21T09:22:55.405Z,95286.91
2023-05-21T09:23:58.618Z,95292.72
2023-05-21T09:25:05.879Z,95287.72
2023-05-21T09:26:11.953Z,95292.06
2023-05-21T09:27:18.163Z,95286.75
2023-05-21T09:28:21.741Z,95287.53
2023-05-21T09:29:26.397Z,95289.75
2023-05-21T09:30:31.155Z,95284.63
2023-05-21T09:31:34.547Z,95295.03
2023-05-21T09:32:37.737Z,95287.44
2023-05-21T09:33:47.126Z,95287.47
2023-05-21T09:34:50.952Z,95289.00
2023-05-21T09:35:52.954Z,95296.31
2023-05-21T09:36:57.887Z,95287.19
2023-05-21T09:37:59.931Z,95285.84
2023-05-21T09:39:03.379Z,95290.94
2023-05-21T09:40:11.560Z,95292.72
2023-05-21T09:41:15.914Z,95288.97
2023-05-21T09:42:21.838Z,95286.44
2023-05-21T09:43:24.978Z,95287.19
2023-05-21T09:44:28.642Z,95285.22
2023-05-21T09:45:35.315Z,95284.22
2023-05-21T09:46:41.831Z,95287.72
2023-05-21T09:47:46.758Z,95285.22
2023-05-21T09:48:48.774Z,95278.19
2023-05-21T09:49:54.284Z,95283.25
2023-05-21T09:51:08.116Z,95278.94
2023-05-21T09:52:11.151Z,95292.56
2023-05-21T09:53:13.824Z,95294.31
2023-05-21T09:54:16.827Z,95285.72
2023-05-21T09:55:19.531Z,95283.47
2023-05-21T09:56:24.365Z,95287.78
2023-05-21T09:57:26.544Z,95283.75
2023-05-21T09:58:30.333Z,95284.00
2023-05-21T09:59:40.409Z,95284.00
2023-05-21T10:00:43.608Z,95284.00
2023-05-21T10:01:46.405Z,95286.31
2023-05-21T10:02:50.706Z,95285.59
2023-05-21T10:03:56.210Z,95282.06
2023-05-21T10:05:00.606Z,95283.13
2023-05-21T10:06:03.938Z,95286.44
2023-05-21T10:07:06.894Z,95294.56
2023-05-21T10:08:12.523Z,95287.78
2023-05-21T10:09:18.891Z,95289.28
2023-05-21T10:10:22.819Z,95275.94
2023-05-21T10:11:27.431Z,95287.06
2023-05-21T10:12:32.613Z,95285.03
2023-05-21T10:13:39.007Z,95277.19
2023-05-21T10:14:47.884Z,95285.53
2023-05-21T10:15:56.732Z,95281.03
2023-05-21T10:16:59.443Z,95273.44
2023-05-21T10:18:02.850Z,95275.97
2023-05-21T10:19:10.835Z,95270.94
2023-05-21T10:20:14.081Z,95280.53
2023-05-21T10:21:16.981Z,95267.66
2023-05-21T10:22:20.080Z,95273.00
2023-05-21T10:23:23.646Z,95268.19
2023-05-21T10:24:27.349Z,95270.97
2023-05-21T10:25:31.857Z,95270.97
2023-05-21T10:26:34.419Z,95270.97
2023-05-21T10:27:38.396Z,95264.41
2023-05-21T10:28:41.326Z,95275.50
2023-05-21T10:29:46.801Z,95268.97
2023-05-21T10:30:48.995Z,95274.53
2023-05-21T10:31:53.705Z,95266.94
2023-05-21T10:32:57.029Z,95256.09
2023-05-21T10:34:01.409Z,95264.97
2023-05-21T10:35:04.752Z,95265.19
2023-05-21T10:36:06.643Z,95256.09
2023-05-21T10:37:10.401Z,95253.59
2023-05-21T10:38:15.469Z,95260.91
2023-05-21T10:39:20.921Z,95254.34
2023-05-21T10:40:22.919Z,95254.84
2023-05-21T10:41:29.024Z,95258.63
2023-05-21T10:42:59.369Z,95257.91
2023-05-21T10:44:12.127Z,95252.84
2023-05-21T10:45:21.041Z,95252.56
2023-05-21T10:46:59.224Z,95256.13
2023-05-21T10:48:31.754Z,95258.16
2023-05-21T10:49:47.092Z,95255.88
2023-05-21T10:51:10.431Z,95257.13
2023-05-21T10:52:26.144Z,95254.88
2023-05-21T10:53:40.182Z,95258.13
2023-05-21T10:54:58.072Z,95257.16
2023-05-21T10:56:15.531Z,95255.88
2023-05-21T10:57:33.999Z,95255.88
2023-05-21T10:59:11.720Z,95244.22
2023-05-21T11:00:18.120Z,95253.09
2023-05-21T11:01:21.844Z,95250.81
2023-05-21T11:02:26.730Z,95245.50
2023-05-21T11:03:33.084Z,95253.34
2023-05-21T11:04:40.084Z,95258.16
2023-05-21T11:05:53.129Z,95255.38
2023-05-21T11:06:56.362Z,95255.38
2023-05-21T11:08:01.535Z,95251.84
2023-05-21T11:09:13.477Z,95245.28
2023-05-21T11:10:32.730Z,95246.78
2023-05-21T11:11:42.867Z,95237.94
2023-05-21T11:13:08.029Z,95252.34
2023-05-21T11:14:39.226Z,95247.28
2023-05-21T11:16:07.247Z,95244.50
2023-05-21T11:17:14.708Z,95247.53
2023-05-21T11:18:16.946Z,95247.78
2023-05-21T11:19:20.364Z,95247.81
2023-05-21T11:20:23.860Z,95249.09
2023-05-21T11:21:30.647Z,95249.84
2023-05-21T11:22:36.694Z,95250.88
2023-05-21T11:23:49.044Z,95246.53
2023-05-21T11:24:52.394Z,95251.06
2023-05-21T11:26:01.349Z,95239.19
2023-05-21T11:27:05.857Z,95240.72
2023-05-21T11:28:09.654Z,95241.72
2023-05-21T11:29:11.919Z,95240.47
2023-05-21T11:30:17.427Z,95247.28
2023-05-21T11:31:25.525Z,95241.72
2023-05-21T11:32:29.817Z,95247.78
2023-05-21T11:33:33.486Z,95248.56
2023-05-21T11:34:41.825Z,95243.00
2023-05-21T11:35:58.192Z,95243.28
2023-05-21T11:37:27.586Z,95241.50
2023-05-21T11:38:32.015Z,95234.19
2023-05-21T11:39:40.298Z,95229.59
2023-05-21T11:40:53.704Z,95236.19
2023-05-21T11:41:58.109Z,95237.16
2023-05-21T11:43:01.809Z,95232.56
2023-05-21T11:44:08.433Z,95237.34
2023-05-21T11:45:12.022Z,95237.09
2023-05-21T11:46:14.388Z,95234.56
2023-05-21T11:47:20.117Z,95232.31
2023-05-21T11:48:27.681Z,95236.38
2023-05-21T11:49:31.348Z,95238.94
2023-05-21T11:50:35.365Z,95241.22
2023-05-21T11:51:37.478Z,95232.09
2023-05-21T11:52:41.876Z,95227.81
2023-05-21T11:53:44.478Z,95237.41
2023-05-21T11:54:50.606Z,95230.06
2023-05-21T11:55:57.484Z,95230.06
2023-05-21T11:57:01.073Z,95239.22
2023-05-21T11:58:04.344Z,95237.16
2023-05-21T11:59:16.087Z,95236.91
2023-05-21T12:00:21.862Z,95242.75
2023-05-21T12:01:24.105Z,95233.88
2023-05-21T12:02:33.690Z,95244.50
2023-05-21T12:03:36.816Z,95243.97
2023-05-21T12:04:38.809Z,95238.88
2023-05-21T12:05:46.182Z,95237.63
2023-05-21T12:06:48.266Z,95240.41
2023-05-21T12:07:51.253Z,95241.44
2023-05-21T12:08:58.508Z,95240.94
2023-05-21T12:10:01.995Z,95246.25
2023-05-21T12:11:05.443Z,95238.44
2023-05-21T12:12:09.676Z,95242.22
2023-05-21T12:13:12.703Z,95242.72
2023-05-21T12:14:14.891Z,95240.41
2023-05-21T12:15:18.963Z,95240.63
2023-05-21T12:16:21.043Z,95241.13
2023-05-21T12:17:25.271Z,95232.28
2023-05-21T12:18:28.548Z,95229.00
2023-05-21T12:19:34.458Z,95236.84
2023-05-21T12:20:37.633Z,95234.59
2023-05-21T12:21:39.897Z,95242.44
2023-05-21T12:22:44.125Z,95239.38
2023-05-21T12:23:46.450Z,95236.06
2023-05-21T12:24:49.508Z,95242.41
2023-05-21T12:25:52.195Z,95234.56
2023-05-21T12:26:59.198Z,95236.59
2023-05-21T12:28:03.452Z,95237.34
2023-05-21T12:29:07.417Z,95235.84
2023-05-21T12:30:11.129Z,95233.31
2023-05-21T12:31:15.399Z,95231.31
2023-05-21T12:32:18.415Z,95224.72
2023-05-21T12:33:21.704Z,95228.00
2023-05-21T12:34:44.685Z,95225.25
2023-05-21T12:35:46.971Z,95226.28
2023-05-21T12:36:51.683Z,95228.81
2023-05-21T12:37:54.911Z,95236.16
2023-05-21T12:38:57.820Z,95234.63
2023-05-21T12:40:02.239Z,95234.91
2023-05-21T12:41:05.013Z,95220.72